Time;durP1;ratioP1;P1;durP2;ratioP2;P2;SDS_P1;SDS_P2;PMS_P1;PMS_P2;Temp;Humidity;BMP_temperature;BMP_pressure;BME280_temperature;BME280_humidity;BME280_pressure;Samples;Min_cycle;Max_cycle;Signal;HPM_P1;HPM_P2
2021/12/27 00:00:24;;;;;;;37.13;22.73;;;-6.50;94.00;;;;;;4991443;28;20507;-54
2021/12/27 00:02:55;;;;;;;38.13;23.17;;;-6.50;94.60;;;;;;4991810;28;20460;-54
2021/12/27 00:05:24;;;;;;;39.87;24.67;;;-6.50;95.90;;;;;;4994204;28;20484;-55
2021/12/27 00:07:53;;;;;;;38.80;22.80;;;-6.40;94.60;;;;;;4991700;28;20467;-55
2021/12/27 00:10:25;;;;;;;40.90;24.00;;;-6.40;93.00;;;;;;4986823;28;20472;-56
2021/12/27 00:12:52;;;;;;;37.77;24.17;;;-6.40;92.50;;;;;;4990828;28;20464;-56
2021/12/27 00:15:19;;;;;;;42.83;24.00;;;-6.30;93.60;;;;;;4992094;28;20515;-48
2021/12/27 00:17:46;;;;;;;44.37;25.03;;;-6.40;94.10;;;;;;4988262;28;20547;-48
2021/12/27 00:20:15;;;;;;;46.63;24.20;;;-6.40;94.90;;;;;;4994051;28;20559;-48
2021/12/27 00:22:42;;;;;;;41.47;24.37;;;-6.40;96.90;;;;;;4992997;28;20555;-48
2021/12/27 00:25:10;;;;;;;42.50;23.33;;;-6.40;93.20;;;;;;4993493;28;20555;-47
2021/12/27 00:27:38;;;;;;;44.80;25.33;;;-6.40;90.40;;;;;;4992168;28;21088;-48
2021/12/27 00:30:06;;;;;;;42.87;24.30;;;-6.40;91.30;;;;;;4992820;28;20543;-48
2021/12/27 00:32:33;;;;;;;43.33;24.60;;;-6.40;90.70;;;;;;4992883;28;20484;-50
2021/12/27 00:35:00;;;;;;;50.57;24.63;;;-6.40;90.40;;;;;;4988658;28;20493;-48
2021/12/27 00:37:27;;;;;;;43.93;25.93;;;-6.40;90.60;;;;;;4989085;28;20539;-48
2021/12/27 00:39:53;;;;;;;45.30;26.20;;;-6.40;90.90;;;;;;4986425;28;20493;-48
2021/12/27 00:42:20;;;;;;;43.13;25.37;;;-6.40;88.10;;;;;;4987633;28;20974;-48
2021/12/27 00:44:48;;;;;;;43.50;24.03;;;-6.40;86.20;;;;;;4994148;28;20571;-48
2021/12/27 00:47:14;;;;;;;42.27;24.40;;;-6.30;87.10;;;;;;4992106;28;20504;-48
2021/12/27 00:49:41;;;;;;;44.80;25.57;;;-6.40;85.90;;;;;;4993186;28;20551;-48
2021/12/27 00:52:08;;;;;;;46.47;26.37;;;-6.40;89.00;;;;;;4992483;28;20952;-48
2021/12/27 00:54:35;;;;;;;51.33;25.30;;;-6.40;88.70;;;;;;4993613;28;20579;-48
2021/12/27 00:57:01;;;;;;;44.93;25.43;;;-6.30;85.30;;;;;;4987550;28;20547;-49
2021/12/27 00:59:28;;;;;;;48.57;27.13;;;-6.30;87.40;;;;;;4992174;28;20543;-49
2021/12/27 01:01:57;;;;;;;48.43;26.40;;;-6.40;88.20;;;;;;4991686;28;20527;-48
2021/12/27 01:04:24;;;;;;;48.07;26.63;;;-6.30;85.50;;;;;;4990153;28;20491;-48
2021/12/27 01:06:50;;;;;;;45.93;26.47;;;-6.40;84.70;;;;;;4993053;28;20552;-48
2021/12/27 01:09:27;;;;;;;48.40;28.30;;;-6.40;88.90;;;;;;4992061;28;20579;-48
2021/12/27 01:12:10;;;;;;;48.57;25.33;;;-6.40;81.10;;;;;;4986565;28;20969;-49
2021/12/27 01:14:42;;;;;;;51.33;26.50;;;-6.40;85.00;;;;;;4990972;28;20492;-49
2021/12/27 01:17:11;;;;;;;50.13;27.60;;;-6.40;85.50;;;;;;4991182;28;20465;-48
2021/12/27 01:19:38;;;;;;;56.03;29.60;;;-6.40;86.30;;;;;;4986833;28;20543;-47
2021/12/27 01:22:05;;;;;;;52.13;27.50;;;-6.40;85.20;;;;;;4990882;28;20913;-48
2021/12/27 01:24:31;;;;;;;52.80;30.20;;;-6.40;86.70;;;;;;4991561;28;20567;-50
2021/12/27 01:27:01;;;;;;;51.57;29.33;;;-6.50;79.40;;;;;;4992408;28;21006;-49
2021/12/27 01:29:27;;;;;;;54.03;29.67;;;-6.40;83.30;;;;;;4991081;28;20469;-49
2021/12/27 01:31:54;;;;;;;54.33;28.53;;;-6.50;87.40;;;;;;4994302;28;20536;-49
2021/12/27 01:34:25;;;;;;;50.20;29.20;;;-6.40;81.90;;;;;;4989200;28;20572;-49
2021/12/27 01:36:53;;;;;;;56.67;31.20;;;-6.40;81.40;;;;;;4985648;28;20445;-49
2021/12/27 01:39:19;;;;;;;56.63;29.77;;;-6.40;83.60;;;;;;4990024;28;20465;-47
2021/12/27 01:41:46;;;;;;;54.77;30.30;;;-6.50;81.40;;;;;;4989503;28;20938;-49
2021/12/27 01:44:13;;;;;;;54.03;29.47;;;-6.40;84.60;;;;;;4988960;28;20544;-49
2021/12/27 01:46:40;;;;;;;46.63;29.00;;;-6.40;82.10;;;;;;4990659;28;20456;-48
2021/12/27 01:49:08;;;;;;;58.23;29.30;;;-6.40;84.30;;;;;;4991033;28;20558;-48
2021/12/27 01:51:38;;;;;;;52.93;30.10;;;-6.40;82.70;;;;;;4990457;28;20460;-49
2021/12/27 01:54:05;;;;;;;46.67;27.60;;;-6.40;84.00;;;;;;4984863;28;20551;-48
2021/12/27 01:56:32;;;;;;;54.57;29.10;;;-6.40;85.60;;;;;;4985289;28;20544;-48
2021/12/27 01:58:59;;;;;;;50.90;28.70;;;-6.30;83.80;;;;;;4982029;28;20456;-48
2021/12/27 02:01:26;;;;;;;59.70;30.27;;;-6.30;84.30;;;;;;4984325;28;20564;-48
2021/12/27 02:03:55;;;;;;;56.80;31.57;;;-6.20;81.80;;;;;;4984878;28;20882;-48
2021/12/27 02:06:22;;;;;;;57.20;30.23;;;-6.30;86.60;;;;;;4986785;28;20559;-48
2021/12/27 02:08:50;;;;;;;67.20;32.17;;;-6.30;84.10;;;;;;4985869;28;20557;-49
2021/12/27 02:11:20;;;;;;;61.03;32.70;;;-6.30;87.10;;;;;;4983625;28;20511;-48
2021/12/27 02:13:47;;;;;;;53.37;29.70;;;-6.30;80.50;;;;;;4985384;28;20494;-49
2021/12/27 02:16:15;;;;;;;60.47;32.70;;;-6.30;79.30;;;;;;4985624;28;20527;-48
2021/12/27 02:18:44;;;;;;;58.60;31.70;;;-6.20;83.70;;;;;;4984141;28;20595;-48
2021/12/27 02:21:12;;;;;;;55.83;31.17;;;-6.20;82.80;;;;;;4990946;28;20825;-48
2021/12/27 02:23:42;;;;;;;59.97;32.93;;;-6.20;80.40;;;;;;4991980;28;21068;-49
2021/12/27 02:26:09;;;;;;;58.33;30.60;;;-6.30;82.80;;;;;;4988220;28;20457;-49
2021/12/27 02:28:36;;;;;;;54.73;31.30;;;-6.20;82.40;;;;;;4990685;28;20924;-48
2021/12/27 02:31:04;;;;;;;56.23;32.37;;;-6.20;82.20;;;;;;4989647;28;20822;-49
2021/12/27 02:33:31;;;;;;;58.10;32.40;;;-6.20;82.80;;;;;;4986691;28;20524;-48
2021/12/27 02:35:59;;;;;;;55.43;31.80;;;-6.20;78.90;;;;;;4991130;28;20532;-48
2021/12/27 02:38:30;;;;;;;69.03;33.80;;;-6.20;76.30;;;;;;4988949;28;21036;-48
2021/12/27 02:40:57;;;;;;;54.77;32.73;;;-6.30;78.60;;;;;;4987780;28;21008;-48
2021/12/27 02:43:25;;;;;;;61.80;31.73;;;-6.30;76.80;;;;;;4990200;28;20912;-48
2021/12/27 02:45:55;;;;;;;58.57;31.17;;;-6.30;78.70;;;;;;4990287;28;20899;-49
2021/12/27 02:48:25;;;;;;;52.47;30.30;;;-6.30;78.10;;;;;;4989869;28;20504;-47
2021/12/27 02:50:53;;;;;;;55.40;32.20;;;-6.40;80.90;;;;;;4991756;28;20480;-47
2021/12/27 02:53:21;;;;;;;63.30;33.13;;;-6.30;80.20;;;;;;4990957;28;20492;-52
2021/12/27 02:55:50;;;;;;;57.03;30.37;;;-6.30;81.00;;;;;;4991753;28;20508;-51
2021/12/27 02:58:17;;;;;;;62.73;30.07;;;-6.30;79.40;;;;;;4989125;28;20556;-52
2021/12/27 03:00:46;;;;;;;64.13;34.77;;;-6.20;80.70;;;;;;4989224;28;20492;-52
2021/12/27 03:03:13;;;;;;;59.30;33.70;;;-6.20;85.80;;;;;;4991358;28;20456;-52
2021/12/27 03:05:43;;;;;;;55.97;30.70;;;-6.20;88.10;;;;;;4987870;28;20491;-52
2021/12/27 03:08:14;;;;;;;62.63;32.53;;;-6.10;81.30;;;;;;4990166;28;20512;-52
2021/12/27 03:10:42;;;;;;;59.27;32.70;;;-6.10;87.50;;;;;;4984947;28;20461;-52
2021/12/27 03:13:16;;;;;;;57.63;31.47;;;-6.10;85.00;;;;;;4987875;28;20503;-52
2021/12/27 03:15:43;;;;;;;55.03;30.30;;;-6.10;83.60;;;;;;4988069;28;20488;-52
2021/12/27 03:18:09;;;;;;;54.50;31.30;;;-6.20;86.50;;;;;;4984287;28;20493;-51
2021/12/27 03:20:36;;;;;;;62.60;32.03;;;-6.10;81.90;;;;;;4978849;28;20592;-52
2021/12/27 03:23:02;;;;;;;56.67;30.47;;;-6.00;84.10;;;;;;4991428;28;20543;-52
2021/12/27 03:25:29;;;;;;;60.93;32.67;;;-6.00;80.00;;;;;;4988586;28;20510;-52
2021/12/27 03:27:56;;;;;;;51.90;30.70;;;-6.00;84.20;;;;;;4988409;28;20927;-52
2021/12/27 03:30:27;;;;;;;57.80;31.50;;;-6.10;88.10;;;;;;4993823;28;20890;-52
2021/12/27 03:32:53;;;;;;;58.30;31.10;;;-6.10;81.00;;;;;;4994337;28;20533;-52
2021/12/27 03:35:26;;;;;;;52.03;29.67;;;-6.10;85.00;;;;;;4994393;28;20526;-52
2021/12/27 03:37:55;;;;;;;59.67;31.27;;;-6.10;80.70;;;;;;4994244;28;20464;-52
2021/12/27 03:40:22;;;;;;;51.70;30.20;;;-6.10;85.00;;;;;;4993328;28;20468;-52
2021/12/27 03:42:50;;;;;;;59.20;32.57;;;-6.10;84.00;;;;;;4986685;28;20496;-52
2021/12/27 03:45:18;;;;;;;61.70;32.50;;;-6.10;84.50;;;;;;4994267;28;20469;-52
2021/12/27 03:47:46;;;;;;;58.73;30.70;;;-6.10;81.50;;;;;;4987334;28;21191;-51
2021/12/27 03:50:13;;;;;;;61.90;32.97;;;-6.00;78.70;;;;;;4989831;28;20492;-51
2021/12/27 03:52:40;;;;;;;62.10;33.70;;;-6.00;83.40;;;;;;4990773;28;20492;-51
2021/12/27 03:55:08;;;;;;;55.33;30.53;;;-6.00;83.50;;;;;;4988218;28;20591;-51
2021/12/27 03:57:37;;;;;;;54.77;30.03;;;-6.00;83.80;;;;;;4990907;28;20503;-52
2021/12/27 04:00:26;;;;;;;56.90;31.17;;;-6.00;86.00;;;;;;4993252;28;20464;-52
2021/12/27 04:02:56;;;;;;;63.47;31.70;;;-6.00;82.40;;;;;;4995176;28;20464;-51
2021/12/27 04:05:24;;;;;;;56.13;31.43;;;-5.90;83.40;;;;;;4988927;28;20479;-51
2021/12/27 04:07:59;;;;;;;63.27;33.13;;;-5.90;83.70;;;;;;4993692;28;20602;-52
2021/12/27 04:10:26;;;;;;;54.40;30.90;;;-6.00;85.90;;;;;;4990100;28;20885;-51
2021/12/27 04:12:53;;;;;;;65.40;33.73;;;-5.90;86.30;;;;;;4993834;28;20554;-51
2021/12/27 04:15:19;;;;;;;61.30;31.87;;;-5.90;84.20;;;;;;4992372;28;21017;-51
2021/12/27 04:17:46;;;;;;;59.70;32.40;;;-5.80;85.50;;;;;;4993728;28;21213;-51
2021/12/27 04:20:14;;;;;;;61.43;33.03;;;-5.80;85.20;;;;;;4988734;28;20567;-51
2021/12/27 04:22:40;;;;;;;57.13;31.30;;;-5.70;88.20;;;;;;4985503;28;20982;-52
2021/12/27 04:25:08;;;;;;;61.57;32.07;;;-5.80;89.80;;;;;;4991633;28;20568;-52
2021/12/27 04:27:34;;;;;;;58.17;33.73;;;-5.80;91.80;;;;;;4991700;28;21001;-52
2021/12/27 04:30:01;;;;;;;56.60;32.47;;;-5.80;88.00;;;;;;4991314;28;20492;-52
2021/12/27 04:32:27;;;;;;;60.23;33.70;;;-5.80;88.30;;;;;;4990651;28;20503;-52
2021/12/27 04:34:54;;;;;;;60.17;33.30;;;-5.90;88.70;;;;;;4992728;28;20596;-52
2021/12/27 04:37:23;;;;;;;60.87;33.57;;;-5.90;88.50;;;;;;4994368;28;20492;-51
2021/12/27 04:39:50;;;;;;;65.67;33.87;;;-5.90;93.70;;;;;;4990785;28;21028;-52
2021/12/27 04:42:16;;;;;;;68.03;34.10;;;-5.90;94.10;;;;;;4990305;28;20556;-51
2021/12/27 04:44:43;;;;;;;64.87;33.30;;;-5.90;93.30;;;;;;4994466;28;20520;-52
2021/12/27 04:47:13;;;;;;;55.37;32.80;;;-5.90;89.00;;;;;;4992508;28;20461;-52
2021/12/27 04:49:39;;;;;;;65.20;34.17;;;-5.90;84.40;;;;;;4987796;28;20556;-51
2021/12/27 04:52:06;;;;;;;60.13;32.40;;;-5.90;89.90;;;;;;4989648;28;20894;-51
2021/12/27 04:54:34;;;;;;;68.40;35.80;;;-5.80;94.10;;;;;;4992306;28;20571;-52
2021/12/27 04:57:01;;;;;;;64.97;34.00;;;-5.80;85.60;;;;;;4993890;28;20639;-52
2021/12/27 04:59:28;;;;;;;58.90;33.67;;;-5.70;87.20;;;;;;4990813;28;20464;-53
2021/12/27 05:01:54;;;;;;;62.17;34.67;;;-5.80;92.10;;;;;;4989589;28;20472;-52
2021/12/27 05:04:21;;;;;;;56.67;32.23;;;-5.80;91.10;;;;;;4991721;28;20520;-51
2021/12/27 05:06:47;;;;;;;67.40;35.03;;;-5.70;89.50;;;;;;4987911;28;20907;-51
2021/12/27 05:09:14;;;;;;;63.93;34.53;;;-5.60;95.30;;;;;;4990477;28;20571;-51
2021/12/27 05:11:42;;;;;;;68.73;33.43;;;-5.70;91.30;;;;;;4988067;28;20903;-51
2021/12/27 05:14:09;;;;;;;58.23;32.57;;;-5.70;91.30;;;;;;4992534;28;20943;-51
2021/12/27 05:16:35;;;;;;;65.87;35.30;;;-5.80;96.80;;;;;;4985902;28;20586;-52
2021/12/27 05:19:02;;;;;;;67.23;33.70;;;-5.70;96.90;;;;;;4993354;28;20904;-52
2021/12/27 05:21:28;;;;;;;61.87;34.03;;;-5.70;96.00;;;;;;4991052;28;20504;-52
2021/12/27 05:23:55;;;;;;;69.93;34.00;;;-5.60;95.20;;;;;;4992360;28;20520;-52
2021/12/27 05:26:22;;;;;;;59.97;33.30;;;-5.60;96.70;;;;;;4993117;28;20461;-52
2021/12/27 05:28:50;;;;;;;62.37;34.10;;;-5.60;93.50;;;;;;4992752;28;20944;-52
2021/12/27 05:31:16;;;;;;;69.93;35.43;;;-5.60;93.00;;;;;;4992092;28;20970;-53
2021/12/27 05:33:43;;;;;;;61.83;33.83;;;-5.60;93.30;;;;;;4984226;28;20516;-52
2021/12/27 05:36:12;;;;;;;64.30;34.80;;;-5.50;92.40;;;;;;4990689;28;20481;-52
2021/12/27 05:38:39;;;;;;;60.97;34.43;;;-5.50;94.90;;;;;;4986989;28;20464;-52
2021/12/27 05:41:06;;;;;;;70.10;36.30;;;-5.60;95.70;;;;;;4990848;28;20499;-52
2021/12/27 05:43:32;;;;;;;66.57;35.00;;;-5.60;95.00;;;;;;4985888;28;20559;-52
2021/12/27 05:46:01;;;;;;;67.57;36.50;;;-5.60;95.60;;;;;;4991661;28;20488;-52
2021/12/27 05:48:28;;;;;;;64.43;34.93;;;-5.70;85.90;;;;;;4991351;28;20470;-52
2021/12/27 05:50:55;;;;;;;69.60;35.47;;;-5.60;90.80;;;;;;4991473;28;20919;-51
2021/12/27 05:53:21;;;;;;;68.17;35.60;;;-5.60;91.70;;;;;;4992362;28;20477;-52
2021/12/27 05:55:48;;;;;;;67.17;36.17;;;-5.60;89.70;;;;;;4987739;28;20523;-52
2021/12/27 05:58:15;;;;;;;63.63;35.47;;;-5.50;89.20;;;;;;4987003;28;20548;-52
2021/12/27 06:00:42;;;;;;;63.70;34.07;;;-5.50;94.70;;;;;;4989256;28;20496;-52
2021/12/27 06:03:09;;;;;;;57.87;34.67;;;-5.50;94.40;;;;;;4988662;28;20527;-52
2021/12/27 06:05:36;;;;;;;62.20;33.80;;;-5.50;92.50;;;;;;4988235;28;20994;-52
2021/12/27 06:08:03;;;;;;;63.07;34.47;;;-5.50;92.00;;;;;;4991045;28;20493;-52
2021/12/27 06:10:30;;;;;;;68.20;36.20;;;-5.40;92.20;;;;;;4983336;28;20484;-52
2021/12/27 06:12:56;;;;;;;68.60;36.90;;;-5.40;90.00;;;;;;4981932;28;20476;-51
2021/12/27 06:15:23;;;;;;;70.33;36.13;;;-5.40;94.10;;;;;;4990374;28;20487;-53
2021/12/27 06:17:49;;;;;;;57.80;33.53;;;-5.40;93.60;;;;;;4994471;28;20499;-53
2021/12/27 06:20:19;;;;;;;71.40;35.10;;;-5.40;93.00;;;;;;4983344;28;20497;-52
2021/12/27 06:22:55;;;;;;;66.37;34.63;;;-5.40;90.40;;;;;;4990103;28;20476;-51
2021/12/27 06:25:22;;;;;;;59.13;34.90;;;-5.40;93.50;;;;;;4987438;28;20547;-52
2021/12/27 06:27:49;;;;;;;67.70;36.10;;;-5.40;90.60;;;;;;4981278;28;20496;-52
2021/12/27 06:30:17;;;;;;;68.60;36.23;;;-5.30;91.00;;;;;;4988938;28;20468;-52
2021/12/27 06:32:44;;;;;;;63.80;34.27;;;-5.30;88.80;;;;;;4983947;28;20561;-52
2021/12/27 06:35:12;;;;;;;63.67;35.40;;;-5.40;90.40;;;;;;4989937;28;20512;-52
2021/12/27 06:37:42;;;;;;;67.03;37.87;;;-5.40;85.40;;;;;;4985892;28;20558;-52
2021/12/27 06:40:10;;;;;;;67.87;37.60;;;-5.50;86.50;;;;;;4990773;28;20500;-52
2021/12/27 06:42:37;;;;;;;67.07;35.53;;;-5.40;84.30;;;;;;4989172;28;20460;-53
2021/12/27 06:45:04;;;;;;;63.13;36.83;;;-5.40;80.40;;;;;;4990226;28;20485;-53
2021/12/27 06:47:31;;;;;;;61.57;36.03;;;-5.30;78.40;;;;;;4987635;28;20460;-52
2021/12/27 06:49:58;;;;;;;64.60;36.13;;;-5.30;83.10;;;;;;4988411;28;20575;-51
2021/12/27 06:52:25;;;;;;;61.57;34.50;;;-5.20;78.60;;;;;;4989190;28;20547;-53
2021/12/27 06:54:52;;;;;;;69.37;35.80;;;-5.20;74.10;;;;;;4990938;28;20602;-52
2021/12/27 06:57:20;;;;;;;67.97;34.83;;;-5.10;71.70;;;;;;4989828;28;20575;-52
2021/12/27 06:59:48;;;;;;;70.33;36.93;;;-5.20;73.90;;;;;;4983584;28;21078;-52
2021/12/27 07:02:15;;;;;;;57.90;35.33;;;-5.10;70.00;;;;;;4988022;28;20472;-52
2021/12/27 07:04:41;;;;;;;65.10;34.17;;;-5.10;70.50;;;;;;4991663;28;20508;-52
2021/12/27 07:07:08;;;;;;;62.70;36.00;;;-5.10;65.10;;;;;;4981541;28;20489;-52
2021/12/27 07:09:35;;;;;;;64.67;37.40;;;-5.00;63.30;;;;;;4989603;28;20496;-52
2021/12/27 07:12:03;;;;;;;63.93;37.10;;;-5.00;64.00;;;;;;4983607;28;20504;-52
2021/12/27 07:14:29;;;;;;;64.13;35.83;;;-5.00;56.70;;;;;;4988938;28;20532;-53
2021/12/27 07:16:56;;;;;;;62.80;35.30;;;-4.90;51.40;;;;;;4991689;28;21020;-52
2021/12/27 07:19:22;;;;;;;59.60;35.07;;;-4.90;49.80;;;;;;4989544;28;20488;-53
2021/12/27 07:21:49;;;;;;;70.00;35.80;;;-5.00;52.00;;;;;;4976257;28;20569;-52
2021/12/27 07:24:16;;;;;;;73.37;37.60;;;-5.00;47.40;;;;;;4985469;28;20512;-51
2021/12/27 07:26:42;;;;;;;60.40;35.17;;;-5.00;44.40;;;;;;4983240;28;20817;-52
2021/12/27 07:29:10;;;;;;;66.33;36.70;;;-5.00;46.50;;;;;;4984529;28;20607;-52
2021/12/27 07:31:37;;;;;;;65.67;37.23;;;-5.00;42.50;;;;;;4985083;28;20910;-52
2021/12/27 07:34:04;;;;;;;65.97;35.33;;;-5.20;36.40;;;;;;4985223;28;20515;-52
2021/12/27 07:36:31;;;;;;;72.53;37.83;;;-5.00;39.50;;;;;;4985635;28;20567;-51
2021/12/27 07:39:00;;;;;;;60.80;34.73;;;-4.90;35.30;;;;;;4984222;28;20548;-52
2021/12/27 07:41:26;;;;;;;68.00;36.97;;;-4.80;40.80;;;;;;4982095;28;20465;-52
2021/12/27 07:43:53;;;;;;;57.30;34.27;;;-4.90;41.50;;;;;;4978073;28;20561;-52
2021/12/27 07:46:20;;;;;;;67.97;36.87;;;-4.80;38.20;;;;;;4988851;28;20495;-52
2021/12/27 07:48:47;;;;;;;63.57;36.07;;;-4.70;23.40;;;;;;4983589;28;20492;-52
2021/12/27 07:51:14;;;;;;;64.60;34.77;;;-4.80;27.30;;;;;;4979188;28;20611;-51
2021/12/27 07:53:40;;;;;;;63.07;37.97;;;-4.90;26.90;;;;;;4980217;28;20616;-51
2021/12/27 07:56:09;;;;;;;62.70;35.07;;;-4.70;29.00;;;;;;4982579;28;20542;-50
2021/12/27 07:58:36;;;;;;;66.57;37.70;;;-4.80;78.90;;;;;;4983847;28;20492;-53
2021/12/27 08:01:03;;;;;;;69.33;35.90;;;-4.70;99.70;;;;;;4978692;28;20471;-51
2021/12/27 08:03:31;;;;;;;74.97;35.80;;;-4.50;99.90;;;;;;4983215;28;20606;-52
2021/12/27 08:05:57;;;;;;;66.30;35.80;;;-4.50;99.90;;;;;;4979109;28;20555;-51
2021/12/27 08:08:24;;;;;;;61.23;34.80;;;-4.50;99.90;;;;;;4984678;28;20575;-50
2021/12/27 08:10:50;;;;;;;64.33;35.97;;;-4.50;99.90;;;;;;4980818;28;20547;-51
2021/12/27 08:13:17;;;;;;;61.07;35.87;;;-4.40;98.60;;;;;;4980796;28;20883;-50
2021/12/27 08:15:44;;;;;;;58.43;34.23;;;-4.30;99.90;;;;;;4987604;28;20526;-51
2021/12/27 08:18:10;;;;;;;64.20;36.50;;;-4.40;97.40;;;;;;4993700;28;20571;-51
2021/12/27 08:20:38;;;;;;;77.40;36.50;;;-4.30;99.90;;;;;;4995224;28;20484;-51
2021/12/27 08:23:05;;;;;;;65.03;35.87;;;-4.40;99.90;;;;;;4994019;28;20468;-51
2021/12/27 08:25:31;;;;;;;64.03;34.20;;;-4.30;99.90;;;;;;4994201;28;20567;-50
2021/12/27 08:27:58;;;;;;;68.00;36.60;;;-4.20;99.90;;;;;;4992949;28;20503;-51
2021/12/27 08:30:25;;;;;;;63.33;34.40;;;-4.40;20.90;;;;;;4992408;28;20488;-50
2021/12/27 08:32:53;;;;;;;68.00;36.90;;;-4.40;99.90;;;;;;4994118;28;20499;-51
2021/12/27 08:35:20;;;;;;;66.07;37.03;;;-4.30;99.90;;;;;;4990477;28;20484;-50
2021/12/27 08:37:48;;;;;;;58.80;33.83;;;-4.30;23.10;;;;;;4993556;28;20484;-51
2021/12/27 08:40:15;;;;;;;65.17;34.33;;;-4.20;98.10;;;;;;4994233;28;20480;-51
2021/12/27 08:42:42;;;;;;;65.80;36.67;;;-4.10;20.10;;;;;;4991671;28;20493;-51
2021/12/27 08:45:10;;;;;;;61.27;33.03;;;-4.10;21.00;;;;;;4994120;28;20492;-52
2021/12/27 08:47:37;;;;;;;67.50;35.07;;;-4.10;33.90;;;;;;4976049;28;20462;-50
2021/12/27 08:50:04;;;;;;;60.57;34.50;;;-4.00;35.90;;;;;;4987668;28;20965;-50
2021/12/27 08:52:31;;;;;;;68.53;36.60;;;-3.90;33.60;;;;;;4984069;28;20950;-51
2021/12/27 08:55:01;;;;;;;64.40;35.07;;;-3.90;38.20;;;;;;4982429;28;20576;-51
2021/12/27 08:57:28;;;;;;;63.33;33.00;;;-3.80;38.90;;;;;;4986619;28;21169;-51
2021/12/27 08:59:55;;;;;;;66.10;35.03;;;-4.00;34.50;;;;;;4985105;28;20496;-51
2021/12/27 09:02:21;;;;;;;60.27;32.90;;;-3.80;35.70;;;;;;4987672;28;20538;-50
2021/12/27 09:04:48;;;;;;;60.73;33.17;;;-4.00;36.00;;;;;;4986628;28;20539;-51
2021/12/27 09:07:15;;;;;;;67.63;33.30;;;-3.70;36.40;;;;;;4987798;28;20460;-51
2021/12/27 09:09:43;;;;;;;58.50;32.83;;;-3.70;42.10;;;;;;4991094;28;20464;-51
2021/12/27 09:12:12;;;;;;;61.83;33.50;;;-3.70;40.50;;;;;;4991929;28;20933;-51
2021/12/27 09:14:39;;;;;;;55.90;32.63;;;-3.60;31.80;;;;;;4991651;28;20504;-52
2021/12/27 09:17:05;;;;;;;66.63;34.20;;;-3.60;48.70;;;;;;4991079;28;20925;-50
2021/12/27 09:19:32;;;;;;;65.33;33.90;;;-3.70;47.90;;;;;;4988368;28;20500;-51
2021/12/27 09:22:00;;;;;;;70.97;36.50;;;-3.60;38.50;;;;;;4991490;28;20552;-52
2021/12/27 09:24:28;;;;;;;59.37;33.93;;;-3.50;45.00;;;;;;4989587;28;20480;-51
2021/12/27 09:26:55;;;;;;;67.67;34.67;;;-3.50;38.20;;;;;;4992597;28;20492;-51
2021/12/27 09:29:23;;;;;;;56.63;33.23;;;-3.50;31.20;;;;;;4992222;28;20492;-51
2021/12/27 09:31:50;;;;;;;64.30;34.87;;;-3.50;46.00;;;;;;4976301;28;20555;-50
2021/12/27 09:34:16;;;;;;;64.07;33.13;;;-3.30;43.20;;;;;;4985222;28;20480;-51
2021/12/27 09:36:43;;;;;;;60.40;31.00;;;-3.20;50.80;;;;;;4984808;28;20576;-50
2021/12/27 09:39:10;;;;;;;64.13;34.67;;;-3.20;53.30;;;;;;4982328;28;20544;-51
2021/12/27 09:41:36;;;;;;;56.47;32.30;;;-3.20;55.10;;;;;;4984525;28;20550;-51
2021/12/27 09:44:04;;;;;;;55.70;32.70;;;-3.00;61.10;;;;;;4982291;28;20579;-51
2021/12/27 09:46:33;;;;;;;62.37;33.47;;;-3.20;53.80;;;;;;4981967;28;20476;-50
2021/12/27 09:49:04;;;;;;;60.27;31.23;;;-3.00;58.50;;;;;;4980077;28;20492;-51
2021/12/27 09:51:34;;;;;;;56.83;32.20;;;-3.00;54.30;;;;;;4983232;28;20573;-52
2021/12/27 09:54:00;;;;;;;64.23;34.00;;;-3.10;55.20;;;;;;4987011;28;21016;-50
2021/12/27 09:56:27;;;;;;;58.30;32.77;;;-3.00;65.70;;;;;;4985852;28;20556;-51
2021/12/27 09:58:54;;;;;;;63.10;32.30;;;-3.00;62.00;;;;;;4980894;28;20600;-50
2021/12/27 10:01:20;;;;;;;62.97;34.57;;;-3.20;58.30;;;;;;4980551;28;20464;-50
2021/12/27 10:03:50;;;;;;;60.93;33.53;;;-3.00;51.50;;;;;;4984655;28;20520;-51
2021/12/27 10:06:18;;;;;;;54.10;31.80;;;-3.00;54.50;;;;;;4986064;28;20499;-50
2021/12/27 10:08:46;;;;;;;53.70;32.20;;;-3.10;60.90;;;;;;4988176;28;20548;-51
2021/12/27 10:11:20;;;;;;;61.87;33.37;;;-3.10;57.80;;;;;;4981541;28;20465;-50
2021/12/27 10:14:06;;;;;;;59.30;32.47;;;-2.90;55.00;;;;;;4980766;28;20494;-50
2021/12/27 10:16:43;;;;;;;54.93;30.70;;;-3.00;56.90;;;;;;4986026;28;20552;-50
2021/12/27 10:19:15;;;;;;;58.13;30.67;;;-2.80;53.00;;;;;;4990938;28;20555;-50
2021/12/27 10:21:42;;;;;;;61.43;33.23;;;-2.70;58.40;;;;;;4989092;28;20471;-50
2021/12/27 10:24:13;;;;;;;59.27;32.60;;;-2.60;54.50;;;;;;4990517;28;20512;-51
2021/12/27 10:26:40;;;;;;;58.07;33.97;;;-2.60;53.90;;;;;;4983597;28;20465;-51
2021/12/27 10:29:09;;;;;;;60.73;33.27;;;-2.50;57.20;;;;;;4986763;28;20492;-51
2021/12/27 10:31:59;;;;;;;52.90;32.23;;;-2.60;63.40;;;;;;4985684;28;20502;-50
2021/12/27 10:34:30;;;;;;;58.80;34.33;;;-2.40;53.50;;;;;;4991205;28;20524;-50
2021/12/27 10:37:00;;;;;;;54.23;31.60;;;-2.50;52.20;;;;;;4990966;28;20502;-50
2021/12/27 10:39:30;;;;;;;57.30;32.97;;;-2.50;53.40;;;;;;4986462;28;20830;-51
2021/12/27 10:42:07;;;;;;;59.53;31.23;;;-2.50;53.70;;;;;;4989994;28;20468;-51
2021/12/27 10:44:35;;;;;;;59.77;32.47;;;-2.50;59.30;;;;;;4976980;28;20495;-51
2021/12/27 10:47:02;;;;;;;60.43;34.27;;;-2.50;55.60;;;;;;4976543;28;20463;-51
2021/12/27 10:52:41;;;;;;;59.67;33.40;;;-2.50;55.00;;;;;;5078730;27;20538;-50
2021/12/27 10:55:08;;;;;;;63.80;34.27;;;-2.30;51.70;;;;;;5063969;28;20572;-50
2021/12/27 10:57:34;;;;;;;62.10;32.80;;;-2.30;54.70;;;;;;5059018;28;20548;-51
2021/12/27 11:00:20;;;;;;;61.53;32.70;;;-2.10;51.40;;;;;;5060298;28;20449;-50
2021/12/27 11:02:47;;;;;;;59.63;32.20;;;-2.10;48.10;;;;;;5060603;28;20550;-51
2021/12/27 11:05:15;;;;;;;54.27;30.20;;;-1.90;55.10;;;;;;5065850;28;20564;-50
2021/12/27 11:07:44;;;;;;;58.10;34.20;;;-1.80;64.70;;;;;;5065475;28;20465;-51
2021/12/27 11:10:11;;;;;;;53.70;31.77;;;-1.90;64.50;;;;;;5065510;28;20503;-50
2021/12/27 11:12:38;;;;;;;53.40;30.07;;;-1.70;67.10;;;;;;5064504;28;20510;-51
2021/12/27 11:15:09;;;;;;;63.13;33.07;;;-1.20;72.60;;;;;;5065147;28;20513;-51
2021/12/27 11:17:37;;;;;;;52.03;30.07;;;-0.60;94.00;;;;;;5063214;28;20655;-51
2021/12/27 11:20:05;;;;;;;60.80;31.17;;;-0.90;83.70;;;;;;5064613;28;20894;-50
2021/12/27 11:22:31;;;;;;;52.47;31.53;;;-1.00;79.70;;;;;;5062896;28;20468;-51
2021/12/27 11:25:05;;;;;;;55.40;33.33;;;-1.30;84.80;;;;;;5065234;28;20485;-51
2021/12/27 11:27:34;;;;;;;59.07;31.63;;;-1.30;73.40;;;;;;5064573;28;20642;-50
2021/12/27 11:30:07;;;;;;;58.17;31.53;;;-1.20;72.10;;;;;;5059796;28;20461;-51
2021/12/27 11:32:34;;;;;;;49.17;29.60;;;-1.00;70.80;;;;;;5054965;28;20457;-50
2021/12/27 11:35:08;;;;;;;52.00;30.30;;;-1.10;66.50;;;;;;5057207;28;20559;-52
2021/12/27 11:37:35;;;;;;;56.37;31.07;;;-1.20;72.10;;;;;;5055048;28;20485;-51
2021/12/27 11:40:06;;;;;;;57.97;31.13;;;-1.10;67.00;;;;;;5059386;28;20540;-51
2021/12/27 11:42:54;;;;;;;56.50;32.70;;;-1.20;67.10;;;;;;5055868;28;20584;-51
2021/12/27 11:45:44;;;;;;;54.33;29.50;;;-1.10;60.90;;;;;;5053372;28;20560;-50
2021/12/27 11:48:13;;;;;;;57.50;32.03;;;-1.10;63.90;;;;;;5056558;28;20558;-50
2021/12/27 11:51:10;;;;;;;55.13;32.03;;;-1.10;57.50;;;;;;5055341;28;21120;-50
2021/12/27 11:53:44;;;;;;;56.80;31.40;;;-1.10;57.10;;;;;;5051134;28;20487;-51
2021/12/27 11:56:17;;;;;;;52.97;30.57;;;-1.00;55.30;;;;;;5054223;28;20580;-50
2021/12/27 11:58:45;;;;;;;50.87;28.50;;;-0.90;57.80;;;;;;5054031;28;20552;-50
2021/12/27 12:01:38;;;;;;;47.33;30.27;;;-1.00;59.50;;;;;;5053935;28;21278;-50
2021/12/27 12:04:05;;;;;;;53.97;33.00;;;-0.90;68.10;;;;;;5043705;28;20843;-50
2021/12/27 12:06:42;;;;;;;59.40;31.80;;;-0.90;66.90;;;;;;5043764;28;20469;-50
2021/12/27 12:09:15;;;;;;;52.77;31.40;;;-1.00;62.70;;;;;;5042794;28;20453;-51
2021/12/27 12:11:44;;;;;;;54.13;29.23;;;-0.90;56.80;;;;;;5044206;28;20486;-50
2021/12/27 12:14:28;;;;;;;54.40;30.07;;;-0.80;63.60;;;;;;5055575;22;20477;-57
2021/12/27 12:16:57;;;;;;;56.90;31.80;;;-0.70;61.40;;;;;;5024883;28;20540;-58
2021/12/27 12:19:38;;;;;;;48.67;29.37;;;-0.60;63.20;;;;;;5026647;28;20546;-58
2021/12/27 12:22:06;;;;;;;55.20;29.50;;;-0.80;62.50;;;;;;5030543;28;20464;-57
2021/12/27 12:24:33;;;;;;;53.73;29.27;;;-0.90;63.50;;;;;;5030738;28;20517;-57
2021/12/27 12:27:04;;;;;;;52.83;30.60;;;-0.90;65.80;;;;;;5027132;28;20553;-57
2021/12/27 12:29:37;;;;;;;58.70;31.40;;;-0.90;60.50;;;;;;5030738;28;20450;-57
2021/12/27 12:32:06;;;;;;;56.60;31.27;;;-0.90;59.70;;;;;;5030173;28;20514;-57
2021/12/27 12:34:33;;;;;;;55.37;30.70;;;-0.80;65.50;;;;;;5033815;28;20502;-57
2021/12/27 12:37:02;;;;;;;60.97;30.43;;;-0.90;67.40;;;;;;5033042;28;20490;-57